Time;durP1;ratioP1;P1;durP2;ratioP2;P2;SDS_P1;SDS_P2;PMS_P1;PMS_P2;Temp;Humidity;BMP_temperature;BMP_pressure;BME280_temperature;BME280_humidity;BME280_pressure;Samples;Min_cycle;Max_cycle;Signal;HPM_P1;HPM_P2
2022/11/26 00:00:29;;;;;;;34.90;13.20;;;8.40;93.20;;;;;;5029011;28;20155;-74
2022/11/26 00:02:55;;;;;;;40.72;13.68;;;8.40;93.40;;;;;;5030058;28;20134;-73
2022/11/26 00:05:21;;;;;;;35.08;12.65;;;8.40;93.60;;;;;;5028442;28;20021;-74
2022/11/26 00:07:55;;;;;;;56.65;14.57;;;8.40;93.80;;;;;;5020893;28;20026;-74
2022/11/26 00:10:27;;;;;;;27.90;12.80;;;8.30;94.00;;;;;;5022975;28;20503;-72
2022/11/26 00:12:53;;;;;;;57.53;14.65;;;8.30;94.00;;;;;;5013072;28;20048;-73
2022/11/26 00:15:21;;;;;;;39.83;11.98;;;8.30;94.00;;;;;;5025562;28;20108;-73
2022/11/26 00:17:48;;;;;;;52.00;13.48;;;8.30;94.10;;;;;;5029874;28;20041;-74
2022/11/26 00:20:15;;;;;;;43.53;12.70;;;8.30;94.20;;;;;;5019001;28;20029;-73
2022/11/26 00:22:49;;;;;;;30.40;12.25;;;8.30;94.10;;;;;;5028443;28;20487;-73
2022/11/26 00:25:26;;;;;;;31.63;12.88;;;8.30;94.20;;;;;;5028028;28;20491;-73
2022/11/26 00:27:54;;;;;;;27.45;12.13;;;8.30;94.10;;;;;;5027999;28;20029;-72
2022/11/26 00:30:25;;;;;;;24.63;10.82;;;8.30;94.10;;;;;;5027192;28;20100;-73
2022/11/26 00:32:52;;;;;;;21.83;9.82;;;8.30;94.10;;;;;;5018080;28;20025;-73
2022/11/26 00:35:18;;;;;;;26.33;11.88;;;8.20;94.10;;;;;;5021283;28;20395;-73
2022/11/26 00:37:48;;;;;;;25.60;11.10;;;8.20;94.10;;;;;;5027255;28;20037;-73
2022/11/26 00:40:22;;;;;;;30.98;13.35;;;8.10;94.50;;;;;;5022017;28;20018;-72
2022/11/26 00:42:48;;;;;;;24.33;10.73;;;8.20;94.10;;;;;;5026943;28;20036;-73
2022/11/26 00:45:19;;;;;;;27.52;10.90;;;8.10;94.10;;;;;;5017263;28;20033;-72
2022/11/26 00:47:45;;;;;;;28.38;11.45;;;8.10;94.00;;;;;;5027106;28;20554;-73
2022/11/26 00:50:19;;;;;;;25.90;12.55;;;8.10;93.90;;;;;;5016202;28;20030;-74
2022/11/26 00:52:47;;;;;;;33.60;13.43;;;8.20;93.80;;;;;;5027699;28;20104;-73
2022/11/26 00:55:30;;;;;;;42.30;16.77;;;8.10;94.00;;;;;;5028823;28;20029;-74
2022/11/26 00:57:56;;;;;;;50.05;18.30;;;8.10;93.70;;;;;;5020573;28;20042;-73
2022/11/26 01:00:29;;;;;;;47.58;17.85;;;8.10;93.70;;;;;;5026704;28;20025;-73
2022/11/26 01:02:55;;;;;;;51.97;22.15;;;8.10;93.70;;;;;;5025464;28;20068;-74
2022/11/26 01:05:24;;;;;;;60.42;24.77;;;8.10;93.60;;;;;;5013240;28;20025;-74
2022/11/26 01:07:51;;;;;;;65.80;25.98;;;8.10;93.50;;;;;;5013059;28;20036;-74
2022/11/26 01:10:20;;;;;;;43.88;20.33;;;8.10;93.40;;;;;;5022464;28;20507;-74
2022/11/26 01:12:48;;;;;;;44.30;19.20;;;8.10;93.40;;;;;;5022156;28;20057;-74
2022/11/26 01:15:14;;;;;;;100.13;37.85;;;8.10;93.30;;;;;;5022333;28;20045;-74
2022/11/26 01:17:40;;;;;;;84.10;35.20;;;8.00;93.30;;;;;;5019052;28;20055;-74
2022/11/26 01:20:24;;;;;;;50.58;20.85;;;8.00;93.40;;;;;;5023338;28;20745;-73
2022/11/26 01:22:52;;;;;;;44.22;17.63;;;8.00;93.40;;;;;;5021410;28;20052;-73
2022/11/26 01:25:18;;;;;;;33.53;14.93;;;8.00;93.40;;;;;;5027946;28;20053;-73
2022/11/26 01:27:44;;;;;;;31.65;13.35;;;8.00;93.30;;;;;;5020991;28;20036;-73
2022/11/26 01:30:20;;;;;;;34.00;15.52;;;8.00;93.30;;;;;;5021060;28;20050;-74
2022/11/26 01:32:48;;;;;;;33.35;15.55;;;8.00;93.30;;;;;;5021413;28;20066;-73
2022/11/26 01:35:14;;;;;;;37.83;18.10;;;8.00;93.30;;;;;;5019614;28;20144;-73
2022/11/26 01:37:40;;;;;;;45.03;18.92;;;8.00;93.20;;;;;;5015265;28;20080;-73
2022/11/26 01:40:24;;;;;;;39.67;17.67;;;8.00;93.10;;;;;;5028786;28;20484;-75
2022/11/26 01:42:54;;;;;;;37.92;18.95;;;7.90;93.00;;;;;;5015126;28;20085;-74
2022/11/26 01:45:21;;;;;;;41.63;19.58;;;8.00;92.90;;;;;;5029197;28;20021;-73
2022/11/26 01:47:47;;;;;;;45.28;19.98;;;7.90;92.90;;;;;;5019829;28;20033;-73
2022/11/26 01:50:31;;;;;;;46.75;21.15;;;8.00;92.90;;;;;;5027792;28;20018;-73
2022/11/26 01:53:02;;;;;;;46.47;21.67;;;7.90;92.80;;;;;;5019991;28;20028;-73
2022/11/26 01:55:42;;;;;;;51.50;24.25;;;8.00;92.80;;;;;;5016952;28;20037;-72
2022/11/26 01:58:11;;;;;;;49.92;23.80;;;7.90;92.60;;;;;;5017462;28;20094;-73
2022/11/26 02:00:37;;;;;;;39.67;19.80;;;7.90;92.40;;;;;;5026462;28;20026;-73
2022/11/26 02:03:03;;;;;;;36.70;18.38;;;7.90;92.60;;;;;;5022431;28;20034;-73
2022/11/26 02:05:35;;;;;;;37.67;17.33;;;7.90;92.60;;;;;;5020392;28;20026;-73
2022/11/26 02:08:01;;;;;;;44.25;18.38;;;7.90;92.80;;;;;;5021806;28;20022;-73
2022/11/26 02:10:27;;;;;;;30.52;14.32;;;7.80;92.90;;;;;;5027944;28;20044;-73
2022/11/26 02:12:53;;;;;;;34.38;16.08;;;7.80;93.10;;;;;;5013910;28;20026;-73
2022/11/26 02:15:21;;;;;;;35.42;16.23;;;7.80;93.10;;;;;;5020194;28;20132;-73
2022/11/26 02:17:54;;;;;;;35.05;15.52;;;7.80;93.20;;;;;;5025636;28;20034;-73
2022/11/26 02:20:52;;;;;;;28.27;13.55;;;7.70;93.30;;;;;;5024004;28;20021;-73
2022/11/26 02:23:34;;;;;;;29.75;13.55;;;7.70;93.40;;;;;;5008698;28;20026;-74
2022/11/26 02:26:34;;;;;;;34.50;15.88;;;7.70;93.40;;;;;;5027488;28;20046;-74
2022/11/26 02:29:12;;;;;;;;;;;7.70;93.50;;;;;;5015676;28;20392;-73
2022/11/26 02:31:49;;;;;;;37.75;15.20;;;7.70;93.50;;;;;;5027618;28;19905;-73
2022/11/26 02:34:15;;;;;;;38.92;16.75;;;7.70;93.70;;;;;;5024404;28;20025;-74
2022/11/26 02:36:57;;;;;;;38.15;16.35;;;7.60;93.90;;;;;;5026746;28;20021;-73
2022/11/26 02:39:26;;;;;;;32.08;15.13;;;7.60;94.10;;;;;;5023511;28;20069;-73
2022/11/26 02:41:57;;;;;;;38.63;15.15;;;7.60;94.00;;;;;;5026762;28;20033;-74
2022/11/26 02:44:29;;;;;;;34.40;15.75;;;7.60;94.00;;;;;;5027676;28;20021;-73
2022/11/26 02:47:03;;;;;;;31.80;16.73;;;7.60;94.00;;;;;;5023968;28;20029;-73
2022/11/26 02:49:32;;;;;;;32.85;14.75;;;7.60;94.10;;;;;;5018946;28;20022;-73
2022/11/26 02:52:01;;;;;;;35.72;15.43;;;7.60;94.20;;;;;;5025167;28;20806;-73
2022/11/26 02:54:28;;;;;;;31.95;16.77;;;7.60;94.20;;;;;;5018256;28;20109;-73
2022/11/26 02:56:54;;;;;;;28.95;14.80;;;7.60;94.20;;;;;;5025773;28;20037;-73
2022/11/26 02:59:21;;;;;;;31.27;15.15;;;7.50;94.20;;;;;;5027600;28;20044;-73
2022/11/26 03:01:57;;;;;;;30.65;14.82;;;7.50;94.10;;;;;;5026278;28;20029;-73
2022/11/26 03:04:31;;;;;;;35.30;15.93;;;7.50;94.00;;;;;;5008427;28;20169;-74
2022/11/26 03:07:01;;;;;;;32.70;14.32;;;7.50;94.10;;;;;;5022783;28;20025;-73
2022/11/26 03:09:39;;;;;;;35.15;16.58;;;7.40;94.20;;;;;;5007883;28;20030;-73
2022/11/26 03:12:05;;;;;;;37.17;16.83;;;7.50;94.20;;;;;;5023810;28;20030;-73
2022/11/26 03:14:30;;;;;;;30.42;14.48;;;7.50;94.10;;;;;;5028703;28;20072;-73
2022/11/26 03:16:56;;;;;;;33.70;16.13;;;7.50;94.10;;;;;;5024331;28;20492;-73
2022/11/26 03:19:21;;;;;;;35.38;15.98;;;7.50;94.20;;;;;;5029648;28;20044;-75
2022/11/26 03:21:47;;;;;;;25.90;12.73;;;7.40;94.20;;;;;;5022202;28;20537;-74
2022/11/26 03:24:12;;;;;;;32.63;15.98;;;7.40;94.20;;;;;;5027618;28;20472;-73
2022/11/26 03:26:38;;;;;;;34.05;15.55;;;7.40;94.20;;;;;;5018957;28;20551;-73
2022/11/26 03:29:04;;;;;;;35.97;17.90;;;7.40;94.30;;;;;;5026173;28;20414;-73
2022/11/26 03:31:30;;;;;;;33.08;14.50;;;7.40;94.30;;;;;;5027372;28;20317;-72
2022/11/26 03:33:56;;;;;;;32.95;16.13;;;7.40;94.40;;;;;;5022827;28;20080;-74
2022/11/26 03:36:21;;;;;;;31.70;14.95;;;7.40;94.40;;;;;;5019030;28;20037;-74
2022/11/26 03:38:47;;;;;;;35.42;17.20;;;7.30;94.50;;;;;;5029570;28;20041;-72
2022/11/26 03:41:13;;;;;;;32.45;15.98;;;7.40;94.50;;;;;;5022693;28;20053;-73
2022/11/26 03:43:39;;;;;;;40.00;16.75;;;7.40;94.50;;;;;;5015670;28;20072;-73
2022/11/26 03:46:05;;;;;;;35.53;16.33;;;7.40;94.50;;;;;;5018139;28;20034;-72
2022/11/26 03:48:31;;;;;;;35.38;16.58;;;7.40;94.40;;;;;;5029437;28;20025;-74
2022/11/26 03:50:56;;;;;;;30.38;16.73;;;7.40;94.30;;;;;;5022627;28;20100;-74
2022/11/26 03:53:22;;;;;;;36.83;17.65;;;7.40;94.20;;;;;;5025329;28;20021;-74
2022/11/26 03:55:47;;;;;;;35.67;17.35;;;7.40;94.20;;;;;;5031137;28;20053;-72
2022/11/26 03:58:13;;;;;;;35.95;17.00;;;7.40;94.10;;;;;;5030801;28;20029;-73
2022/11/26 04:00:39;;;;;;;37.22;16.42;;;7.40;94.00;;;;;;5023634;28;20547;-73
2022/11/26 04:03:04;;;;;;;45.17;19.13;;;7.40;94.00;;;;;;5020492;28;20040;-73
2022/11/26 04:05:31;;;;;;;35.88;16.90;;;7.40;94.00;;;;;;5020450;28;20037;-73
2022/11/26 04:07:56;;;;;;;38.47;15.48;;;7.40;94.00;;;;;;5021379;28;20049;-73
2022/11/26 04:10:22;;;;;;;44.13;17.48;;;7.50;93.90;;;;;;5030069;28;20140;-74
2022/11/26 04:12:47;;;;;;;27.42;15.38;;;7.40;93.90;;;;;;5023850;28;20049;-74
2022/11/26 04:15:13;;;;;;;31.80;15.35;;;7.40;93.80;;;;;;5030029;28;20025;-73
2022/11/26 04:17:39;;;;;;;33.30;15.68;;;7.40;93.80;;;;;;5021581;28;20048;-72
2022/11/26 04:20:05;;;;;;;32.70;17.33;;;7.40;93.80;;;;;;5029666;28;20022;-74
2022/11/26 04:22:31;;;;;;;33.35;17.30;;;7.40;93.80;;;;;;5019036;28;20061;-73
2022/11/26 04:24:56;;;;;;;33.35;15.70;;;7.40;93.80;;;;;;5025902;28;20072;-73
2022/11/26 04:27:22;;;;;;;27.67;15.90;;;7.40;93.80;;;;;;5028218;28;20030;-73
2022/11/26 04:29:47;;;;;;;40.65;17.55;;;7.40;93.70;;;;;;5029044;28;20827;-73
2022/11/26 04:32:13;;;;;;;39.25;17.00;;;7.40;93.70;;;;;;5019357;28;20394;-73
2022/11/26 04:34:38;;;;;;;34.47;16.45;;;7.40;93.80;;;;;;5026106;28;20026;-73
2022/11/26 04:37:04;;;;;;;28.85;16.60;;;7.40;93.90;;;;;;5019455;28;20080;-73
2022/11/26 04:39:30;;;;;;;29.00;15.90;;;7.40;93.90;;;;;;5020840;28;20047;-74
2022/11/26 04:41:55;;;;;;;42.08;18.80;;;7.40;93.80;;;;;;5027591;28;20835;-74
2022/11/26 04:44:21;;;;;;;41.33;19.05;;;7.40;93.70;;;;;;5025446;28;20017;-74
2022/11/26 04:46:46;;;;;;;35.75;16.17;;;7.40;93.70;;;;;;5019008;28;20101;-73
2022/11/26 04:49:12;;;;;;;34.33;17.08;;;7.40;93.60;;;;;;5014589;28;20021;-73
2022/11/26 04:51:38;;;;;;;40.78;17.15;;;7.40;93.50;;;;;;5019525;28;20058;-73
2022/11/26 04:54:04;;;;;;;39.38;17.45;;;7.40;93.40;;;;;;5025524;28;20025;-73
2022/11/26 04:56:29;;;;;;;40.17;18.65;;;7.40;93.40;;;;;;5027845;28;20429;-73
2022/11/26 04:58:55;;;;;;;38.13;18.67;;;7.40;93.40;;;;;;5026245;28;20124;-72
2022/11/26 05:01:20;;;;;;;29.65;15.63;;;7.40;93.40;;;;;;5027293;28;20029;-72
2022/11/26 05:03:46;;;;;;;38.78;19.38;;;7.30;93.40;;;;;;5025747;28;20033;-73
2022/11/26 05:06:11;;;;;;;36.35;16.77;;;7.30;93.50;;;;;;5020348;28;20040;-74
2022/11/26 05:08:37;;;;;;;52.10;20.17;;;7.30;93.60;;;;;;5013018;28;20021;-73
2022/11/26 05:11:03;;;;;;;39.30;19.80;;;7.20;93.70;;;;;;5024602;28;20083;-73
2022/11/26 05:13:29;;;;;;;41.13;19.10;;;7.20;93.70;;;;;;5028899;28;20053;-72
2022/11/26 05:15:54;;;;;;;37.25;16.80;;;7.20;93.80;;;;;;5023039;28;20056;-73
2022/11/26 05:18:20;;;;;;;41.25;20.17;;;7.20;93.80;;;;;;5028659;28;20037;-73
2022/11/26 05:20:45;;;;;;;43.35;20.08;;;7.20;93.70;;;;;;5020766;28;20029;-72
2022/11/26 05:23:11;;;;;;;45.08;20.67;;;7.20;93.80;;;;;;5017050;28;20065;-73
2022/11/26 05:25:36;;;;;;;40.22;18.75;;;7.20;93.80;;;;;;5024181;28;20861;-73
2022/11/26 05:28:02;;;;;;;44.03;20.80;;;7.20;93.90;;;;;;5017115;28;20446;-73
2022/11/26 05:30:28;;;;;;;41.40;19.08;;;7.20;93.90;;;;;;5025507;28;20028;-74
2022/11/26 05:32:53;;;;;;;41.05;19.15;;;7.20;93.90;;;;;;5027532;28;20029;-72
2022/11/26 05:35:19;;;;;;;36.22;17.63;;;7.20;93.90;;;;;;5025608;28;20035;-73
2022/11/26 05:37:45;;;;;;;44.50;18.13;;;7.20;93.90;;;;;;5027806;28;20571;-74
2022/11/26 05:40:11;;;;;;;35.13;18.85;;;7.30;93.90;;;;;;5013602;28;20048;-74
2022/11/26 05:42:38;;;;;;;32.42;16.15;;;7.20;93.80;;;;;;5026578;28;20029;-73
2022/11/26 05:45:04;;;;;;;39.90;18.73;;;7.20;93.80;;;;;;5010225;28;20053;-74
2022/11/26 05:47:30;;;;;;;41.40;19.55;;;7.20;94.00;;;;;;5016375;28;20033;-72
2022/11/26 05:49:56;;;;;;;49.47;21.38;;;7.20;94.00;;;;;;5023410;28;20017;-73
2022/11/26 05:52:22;;;;;;;40.45;16.65;;;7.20;94.10;;;;;;5022929;28;20100;-73
2022/11/26 05:54:48;;;;;;;42.40;18.98;;;7.20;94.20;;;;;;5023203;28;20038;-73
2022/11/26 05:57:14;;;;;;;36.10;19.85;;;7.20;94.10;;;;;;5016733;28;20048;-74
2022/11/26 05:59:39;;;;;;;32.90;15.98;;;7.20;94.10;;;;;;5027991;28;20403;-74
2022/11/26 06:02:05;;;;;;;38.95;18.38;;;7.20;94.10;;;;;;5027357;28;20021;-73
2022/11/26 06:04:31;;;;;;;46.53;17.23;;;7.20;94.10;;;;;;5024228;28;20056;-73
2022/11/26 06:06:58;;;;;;;45.00;19.63;;;7.20;94.10;;;;;;5026064;28;20021;-73
2022/11/26 06:09:24;;;;;;;41.72;19.08;;;7.20;94.10;;;;;;5029676;28;20496;-74
2022/11/26 06:11:49;;;;;;;29.15;15.02;;;7.20;94.10;;;;;;5025970;28;20029;-74
2022/11/26 06:14:16;;;;;;;43.67;18.15;;;7.20;94.10;;;;;;5013503;28;20476;-74
2022/11/26 06:16:41;;;;;;;44.00;20.67;;;7.20;94.20;;;;;;5019186;28;20033;-72
2022/11/26 06:19:07;;;;;;;41.35;19.67;;;7.20;94.10;;;;;;5027371;28;20048;-74
2022/11/26 06:21:32;;;;;;;36.65;17.15;;;7.20;94.20;;;;;;5017219;28;20068;-74
2022/11/26 06:23:58;;;;;;;28.58;16.45;;;7.20;94.20;;;;;;5022539;28;20034;-74
2022/11/26 06:26:24;;;;;;;39.25;19.30;;;7.20;94.20;;;;;;5008263;28;20501;-73
2022/11/26 06:28:49;;;;;;;41.40;18.63;;;7.20;94.20;;;;;;5020902;28;20029;-74
2022/11/26 06:31:15;;;;;;;35.70;18.20;;;7.20;94.10;;;;;;5027969;28;20026;-73
2022/11/26 06:33:40;;;;;;;35.05;16.77;;;7.20;94.10;;;;;;5021586;28;20022;-73
2022/11/26 06:36:06;;;;;;;41.90;20.70;;;7.20;94.10;;;;;;5026199;28;20022;-74
2022/11/26 06:38:33;;;;;;;41.53;18.50;;;7.20;94.10;;;;;;5019374;28;20092;-73
2022/11/26 06:41:00;;;;;;;36.85;20.52;;;7.20;94.00;;;;;;5013135;28;20644;-73
2022/11/26 06:43:26;;;;;;;42.00;17.08;;;7.20;93.90;;;;;;5013916;28;20026;-73
2022/11/26 06:45:53;;;;;;;42.92;21.85;;;7.20;93.90;;;;;;5009967;28;20022;-74
2022/11/26 06:48:22;;;;;;;45.58;22.40;;;7.20;93.90;;;;;;5027405;28;20026;-74
2022/11/26 06:50:47;;;;;;;43.22;21.35;;;7.10;94.00;;;;;;5030863;28;20472;-74
2022/11/26 06:53:13;;;;;;;51.38;25.23;;;7.20;94.10;;;;;;5018773;28;20028;-74
2022/11/26 06:55:39;;;;;;;48.33;22.35;;;7.10;94.20;;;;;;5031681;28;20032;-73
2022/11/26 06:58:04;;;;;;;40.30;20.67;;;7.10;94.20;;;;;;5029819;28;20487;-73
2022/11/26 07:00:30;;;;;;;52.20;21.65;;;7.10;94.30;;;;;;5030107;28;20499;-74
2022/11/26 07:02:55;;;;;;;48.58;22.17;;;7.10;94.30;;;;;;5030682;28;20028;-74
2022/11/26 07:05:21;;;;;;;45.70;20.13;;;7.20;94.30;;;;;;5030677;28;20112;-74
2022/11/26 07:07:46;;;;;;;42.80;21.85;;;7.20;94.30;;;;;;5018353;28;20026;-73
2022/11/26 07:10:12;;;;;;;40.25;21.25;;;7.10;94.40;;;;;;5029185;28;20018;-72
2022/11/26 07:12:38;;;;;;;52.25;21.38;;;7.10;94.50;;;;;;5030791;28;20589;-73
2022/11/26 07:15:04;;;;;;;54.63;22.10;;;7.10;94.50;;;;;;5025009;28;20116;-74
2022/11/26 07:17:30;;;;;;;59.55;23.75;;;7.10;94.40;;;;;;5029914;28;20372;-74
2022/11/26 07:19:55;;;;;;;53.30;23.15;;;7.10;94.50;;;;;;5029300;28;20029;-74
2022/11/26 07:22:21;;;;;;;49.42;22.67;;;7.10;94.50;;;;;;5024360;28;20026;-73
2022/11/26 07:24:46;;;;;;;49.10;24.02;;;7.10;94.60;;;;;;5020015;28;20414;-74
2022/11/26 07:27:12;;;;;;;55.90;21.88;;;7.10;94.50;;;;;;5029350;28;20026;-74
2022/11/26 07:29:38;;;;;;;46.10;22.05;;;7.20;94.50;;;;;;5024584;28;20565;-73
2022/11/26 07:32:03;;;;;;;45.33;21.90;;;7.20;94.30;;;;;;5024229;28;20116;-74
2022/11/26 07:34:29;;;;;;;44.60;21.30;;;7.20;94.20;;;;;;5019986;28;20033;-74
2022/11/26 07:36:54;;;;;;;44.75;20.77;;;7.30;94.20;;;;;;5019107;28;20040;-74
2022/11/26 07:39:20;;;;;;;48.25;23.48;;;7.30;94.10;;;;;;5019017;28;20061;-73
2022/11/26 07:41:46;;;;;;;38.22;20.60;;;7.30;94.00;;;;;;5028899;28;20502;-73
2022/11/26 07:44:12;;;;;;;43.65;21.30;;;7.40;93.80;;;;;;5017841;28;20026;-74
2022/11/26 07:46:38;;;;;;;51.42;21.77;;;7.40;93.70;;;;;;5029731;28;20018;-73
2022/11/26 07:49:04;;;;;;;45.80;21.58;;;7.40;93.70;;;;;;5030541;28;20055;-74
2022/11/26 07:51:31;;;;;;;38.35;21.50;;;7.40;93.90;;;;;;5029444;28;20131;-74
2022/11/26 07:54:01;;;;;;;38.65;22.15;;;7.40;94.10;;;;;;5018063;28;20029;-74
2022/11/26 07:56:27;;;;;;;;;;;7.40;94.20;;;;;;5026138;28;20025;-73
2022/11/26 07:58:52;;;;;;;42.30;20.80;;;7.40;94.20;;;;;;5029145;28;19939;-74
2022/11/26 08:01:21;;;;;;;50.78;21.08;;;7.40;94.30;;;;;;5019482;28;20316;-73
2022/11/26 08:03:49;;;;;;;53.30;27.30;;;7.50;94.20;;;;;;5027973;28;20042;-73
2022/11/26 08:06:17;;;;;;;48.42;27.20;;;7.50;94.20;;;;;;5019072;28;20177;-74
2022/11/26 08:08:43;;;;;;;43.90;20.52;;;7.60;94.30;;;;;;5012420;28;20034;-74
2022/11/26 08:11:14;;;;;;;61.33;24.80;;;7.60;94.30;;;;;;5026270;28;20036;-73
2022/11/26 08:13:41;;;;;;;59.38;23.50;;;7.70;94.20;;;;;;5030375;28;20032;-74
2022/11/26 08:16:08;;;;;;;57.58;25.63;;;7.70;94.20;;;;;;5015844;28;20103;-75
2022/11/26 08:18:34;;;;;;;54.25;22.52;;;7.80;94.00;;;;;;5025926;28;20056;-74
2022/11/26 08:21:00;;;;;;;47.05;19.95;;;7.90;93.90;;;;;;5028236;28;20104;-75
2022/11/26 08:23:28;;;;;;;46.58;19.55;;;8.00;93.80;;;;;;5030626;28;20090;-74
2022/11/26 08:25:54;;;;;;;43.05;18.02;;;8.20;93.70;;;;;;5026947;28;20519;-74
2022/11/26 08:28:19;;;;;;;37.38;15.90;;;8.40;93.40;;;;;;5022207;28;20031;-73
2022/11/26 08:30:45;;;;;;;35.63;16.42;;;8.50;92.90;;;;;;5012899;28;20030;-74
2022/11/26 08:33:11;;;;;;;42.22;17.08;;;8.60;92.50;;;;;;5019357;28;20033;-73
2022/11/26 08:35:37;;;;;;;39.13;16.02;;;8.60;92.40;;;;;;5030173;28;20120;-74
2022/11/26 08:38:03;;;;;;;37.42;15.50;;;8.70;92.40;;;;;;5029354;28;20055;-74
2022/11/26 08:40:29;;;;;;;35.60;17.02;;;8.80;92.10;;;;;;5008774;28;20022;-75
2022/11/26 08:42:54;;;;;;;32.92;15.20;;;8.80;92.00;;;;;;5023121;28;20127;-75
2022/11/26 08:45:20;;;;;;;37.83;16.27;;;8.80;92.10;;;;;;5022250;28;20033;-74
2022/11/26 08:47:45;;;;;;;38.63;17.63;;;8.80;92.30;;;;;;5021070;28;20056;-73
2022/11/26 08:50:11;;;;;;;30.40;14.52;;;8.90;92.40;;;;;;5023555;28;20037;-74
2022/11/26 08:52:37;;;;;;;35.95;14.10;;;9.00;92.20;;;;;;5018686;28;20104;-74
2022/11/26 08:55:03;;;;;;;34.90;14.82;;;9.20;92.40;;;;;;5015833;28;20026;-74
2022/11/26 08:57:29;;;;;;;27.90;14.18;;;9.50;91.50;;;;;;5015645;28;20125;-74
2022/11/26 08:59:54;;;;;;;33.85;13.80;;;9.70;91.10;;;;;;5013707;28;20042;-74
2022/11/26 09:02:22;;;;;;;27.35;14.95;;;9.80;90.80;;;;;;5021280;28;20021;-74
2022/11/26 09:04:47;;;;;;;32.42;15.10;;;9.70;90.60;;;;;;5027216;28;20036;-74
2022/11/26 09:07:13;;;;;;;33.08;15.13;;;9.60;90.40;;;;;;5024995;28;20037;-73
2022/11/26 09:09:39;;;;;;;34.90;14.98;;;9.40;90.70;;;;;;5021121;28;20840;-74
2022/11/26 09:12:05;;;;;;;40.72;17.30;;;9.30;90.80;;;;;;5026972;28;20033;-75
2022/11/26 09:14:36;;;;;;;32.50;15.07;;;9.20;91.00;;;;;;5020619;28;20061;-74
2022/11/26 09:17:02;;;;;;;40.72;16.70;;;9.10;91.30;;;;;;5014993;28;20156;-73
2022/11/26 09:19:28;;;;;;;42.53;17.30;;;9.00;91.50;;;;;;5018518;28;20514;-74
2022/11/26 09:21:54;;;;;;;33.15;16.83;;;8.90;91.80;;;;;;5014009;28;20072;-74
2022/11/26 09:24:20;;;;;;;35.50;16.60;;;8.80;92.20;;;;;;5015765;28;20022;-75
2022/11/26 09:26:47;;;;;;;43.92;17.60;;;8.80;92.30;;;;;;5018417;28;20033;-74
2022/11/26 09:29:14;;;;;;;42.35;18.00;;;8.80;92.40;;;;;;5019152;28;20026;-74
2022/11/26 09:31:40;;;;;;;33.75;17.02;;;8.70;92.50;;;;;;5016175;28;20384;-74
2022/11/26 09:34:06;;;;;;;41.70;17.23;;;8.70;92.60;;;;;;5019731;28;20029;-74
2022/11/26 09:36:32;;;;;;;41.55;17.13;;;8.70;92.70;;;;;;5021455;28;20026;-76
2022/11/26 09:38:58;;;;;;;37.70;18.27;;;8.60;92.90;;;;;;5020277;28;20132;-74
2022/11/26 09:41:47;;;;;;;37.30;18.00;;;8.70;93.00;;;;;;5022346;28;20060;-75
2022/11/26 09:44:37;;;;;;;39.65;18.35;;;8.70;93.10;;;;;;5017131;28;20017;-74
2022/11/26 09:47:19;;;;;;;42.10;18.83;;;8.70;93.10;;;;;;5016528;28;20108;-74
2022/11/26 09:50:03;;;;;;;41.75;17.42;;;8.80;93.20;;;;;;5024180;28;20021;-74
2022/11/26 09:52:45;;;;;;;37.63;18.58;;;8.80;93.20;;;;;;5018274;28;20107;-74
2022/11/26 09:55:20;;;;;;;37.97;18.60;;;8.90;93.20;;;;;;5024020;28;20037;-74
2022/11/26 09:57:58;;;;;;;36.35;18.48;;;8.90;93.10;;;;;;5025019;28;20026;-75
2022/11/26 10:00:30;;;;;;;38.70;19.85;;;8.90;93.10;;;;;;5020099;28;20022;-75
2022/11/26 10:02:57;;;;;;;43.00;20.67;;;8.90;93.20;;;;;;5023627;28;20075;-74
2022/11/26 10:05:41;;;;;;;37.80;18.42;;;8.90;93.30;;;;;;5017794;28;20060;-75
2022/11/26 10:08:19;;;;;;;39.03;18.55;;;8.90;93.30;;;;;;5010705;28;20037;-74
2022/11/26 10:10:55;;;;;;;39.00;19.00;;;9.00;93.30;;;;;;5020898;28;20486;-74
2022/11/26 10:13:31;;;;;;;39.08;18.70;;;9.00;93.40;;;;;;5016517;28;20026;-75
2022/11/26 10:16:05;;;;;;;41.08;17.85;;;9.00;93.60;;;;;;5014325;28;21087;-75
2022/11/26 10:18:54;;;;;;;50.60;19.10;;;9.00;93.70;;;;;;5017342;28;20041;-75
2022/11/26 10:21:34;;;;;;;36.33;18.60;;;9.00;93.80;;;;;;5017473;28;20056;-74
2022/11/26 10:24:26;;;;;;;48.50;20.33;;;9.00;93.90;;;;;;5020019;28;20017;-77
2022/11/26 10:26:52;;;;;;;37.35;19.00;;;9.10;94.00;;;;;;5029016;28;20044;-75
2022/11/26 10:29:27;;;;;;;36.58;17.73;;;9.10;94.00;;;;;;5024347;28;20404;-74
2022/11/26 10:31:58;;;;;;;39.85;18.45;;;9.10;94.20;;;;;;5024311;28;20095;-74
2022/11/26 10:34:36;;;;;;;38.20;17.27;;;9.20;94.10;;;;;;5020454;28;20560;-75
2022/11/26 10:37:02;;;;;;;37.35;16.35;;;9.20;94.10;;;;;;5025248;28;20029;-76
2022/11/26 10:39:28;;;;;;;44.67;18.38;;;9.30;94.20;;;;;;5019532;28;20045;-75
2022/11/26 10:41:53;;;;;;;34.53;14.88;;;9.30;94.30;;;;;;5019379;28;20033;-76
2022/11/26 10:44:38;;;;;;;40.95;16.50;;;9.40;94.30;;;;;;5019958;28;20022;-75
2022/11/26 10:47:24;;;;;;;35.88;16.83;;;9.40;94.30;;;;;;5018196;28;20022;-74
2022/11/26 10:50:12;;;;;;;42.72;16.95;;;9.40;94.20;;;;;;5029092;28;20033;-75
2022/11/26 10:52:38;;;;;;;38.08;17.00;;;9.40;94.50;;;;;;5029470;28;20034;-75
2022/11/26 10:55:25;;;;;;;41.15;16.67;;;9.50;94.30;;;;;;5025005;28;20022;-74
2022/11/26 10:58:12;;;;;;;38.33;15.60;;;9.60;94.40;;;;;;5024372;28;20092;-75
2022/11/26 11:00:43;;;;;;;41.53;16.17;;;9.60;94.20;;;;;;5016753;28;20026;-76
2022/11/26 11:03:20;;;;;;;37.50;15.60;;;9.70;94.20;;;;;;5026291;28;20053;-74
2022/11/26 11:05:46;;;;;;;33.15;14.75;;;9.70;94.30;;;;;;5017983;28;20018;-75
2022/11/26 11:08:29;;;;;;;34.53;14.25;;;9.80;94.30;;;;;;5024366;28;20056;-75
2022/11/26 11:10:58;;;;;;;33.67;14.23;;;10.00;94.00;;;;;;5013760;28;20105;-75
2022/11/26 11:13:42;;;;;;;34.67;14.55;;;10.00;93.90;;;;;;5021283;28;20026;-75
2022/11/26 11:16:09;;;;;;;36.20;14.55;;;10.00;93.90;;;;;;5024284;28;20033;-75
2022/11/26 11:18:35;;;;;;;35.10;14.85;;;10.10;93.90;;;;;;5026926;28;20080;-75
2022/11/26 11:21:02;;;;;;;29.13;14.30;;;10.20;94.00;;;;;;5017952;28;20032;-75
2022/11/26 11:23:35;;;;;;;37.03;13.23;;;10.20;93.90;;;;;;5026735;28;20032;-74
2022/11/26 11:26:07;;;;;;;31.77;13.55;;;10.30;93.80;;;;;;5010097;28;20664;-75
2022/11/26 11:28:38;;;;;;;33.30;13.20;;;10.40;93.80;;;;;;5022419;28;20093;-74
2022/11/26 11:31:21;;;;;;;38.20;12.80;;;10.50;93.40;;;;;;5020082;28;20460;-73
2022/11/26 11:33:48;;;;;;;34.20;12.65;;;10.50;93.20;;;;;;5019535;28;20097;-73
2022/11/26 11:36:14;;;;;;;29.88;13.38;;;10.60;93.20;;;;;;5016571;28;20076;-74
2022/11/26 11:38:47;;;;;;;33.45;13.77;;;10.60;93.10;;;;;;5017180;28;20088;-74
2022/11/26 11:41:29;;;;;;;27.08;12.15;;;10.60;92.90;;;;;;5014017;28;20404;-74
2022/11/26 11:44:14;;;;;;;29.00;13.18;;;10.70;93.20;;;;;;5023072;28;20080;-74
2022/11/26 11:46:45;;;;;;;34.38;12.82;;;10.80;93.00;;;;;;5010873;28;20077;-75
2022/11/26 11:49:47;;;;;;;34.97;12.90;;;10.90;92.80;;;;;;5022293;28;20017;-75
2022/11/26 11:52:39;;;;;;;27.90;10.90;;;11.10;92.70;;;;;;5019455;28;20042;-74
2022/11/26 11:55:17;;;;;;;33.22;12.35;;;11.10;92.40;;;;;;5026907;28;20018;-74
2022/11/26 11:57:54;;;;;;;26.75;10.20;;;11.30;92.50;;;;;;5014600;28;20033;-74
2022/11/26 12:00:32;;;;;;;21.75;10.65;;;11.40;92.30;;;;;;5024175;28;20025;-74
2022/11/26 12:02:58;;;;;;;23.08;9.65;;;11.60;91.90;;;;;;5016786;28;20037;-74
2022/11/26 12:05:52;;;;;;;33.75;11.90;;;11.70;91.80;;;;;;5028762;28;20472;-74
2022/11/26 12:08:45;;;;;;;29.00;10.18;;;12.10;91.40;;;;;;5011453;28;20052;-75
2022/11/26 12:11:26;;;;;;;24.40;9.80;;;12.60;90.50;;;;;;5012616;28;20125;-75
2022/11/26 12:13:54;;;;;;;;;;;13.20;90.10;;;;;;5012782;28;20017;-74
2022/11/26 12:16:23;;;;;;;14.10;6.78;;;13.70;88.50;;;;;;5019575;28;20364;-74
2022/11/26 12:19:03;;;;;;;23.80;7.85;;;14.00;86.80;;;;;;5011547;28;20033;-74
2022/11/26 12:21:43;;;;;;;23.77;8.32;;;14.40;85.80;;;;;;5025901;28;20044;-74
2022/11/26 12:24:25;;;;;;;25.30;7.97;;;14.60;83.60;;;;;;5012509;28;20029;-75
2022/11/26 12:27:02;;;;;;;21.65;8.57;;;14.70;81.20;;;;;;5021519;28;20048;-74
2022/11/26 12:29:50;;;;;;;26.67;7.78;;;14.60;81.40;;;;;;5013337;28;20033;-74
2022/11/26 12:32:42;;;;;;;20.20;7.15;;;14.70;81.60;;;;;;5014516;28;20516;-74
2022/11/26 12:35:15;;;;;;;21.30;8.07;;;14.70;80.30;;;;;;5013776;28;20033;-75
2022/11/26 12:37:41;;;;;;;16.95;5.47;;;14.60;81.20;;;;;;5017184;28;20061;-74
2022/11/26 12:40:26;;;;;;;10.88;4.72;;;14.70;83.70;;;;;;5023914;28;20155;-75
2022/11/26 12:43:05;;;;;;;19.60;6.03;;;14.70;84.90;;;;;;5015352;28;20602;-74
2022/11/26 12:45:56;;;;;;;15.63;5.40;;;14.60;83.60;;;;;;5015587;28;20039;-75
2022/11/26 12:48:42;;;;;;;10.52;4.25;;;14.70;85.20;;;;;;5028330;28;20029;-74
2022/11/26 12:51:21;;;;;;;15.55;5.88;;;14.70;85.20;;;;;;5022504;28;20030;-75